This is the latest recevied weather packets stored in our database for station/object HB9TJM-8. If no packets are shown the sender has not sent any weather packets the latest 1 day(s).
| Time | Temp. | Humidity | Pressure | Rain* | Wind** | Luminosity | Snow |
|---|---|---|---|---|---|---|---|
| 1778004650 | 9.44° C | 88% | 1010.4 hPa | 0 mm | 1.79 m/s, 41° | 43 W/m² | - |
| 1778004342 | 10° C | 86% | 1010.8 hPa | 0 mm | 0.89 m/s, 319° | 46 W/m² | - |
| 1778004037 | 10° C | 83% | 1010.6 hPa | 0 mm | 0.89 m/s, 215° | 52 W/m² | - |
| 1778003728 | 10° C | 84% | 1010.4 hPa | 0 mm | 0 m/s | 59 W/m² | - |
| 1778003421 | 10° C | 83% | 1009.8 hPa | 0 mm | 0 m/s | 64 W/m² | - |
| 1778003112 | 10° C | 85% | 1010.5 hPa | 0 mm | 0.89 m/s, 50° | 65 W/m² | - |
| 1778002805 | 10° C | 83% | 1010.6 hPa | 0 mm | 0.89 m/s, 259° | 78 W/m² | - |
| 1778002498 | 9.44° C | 83% | 1010.4 hPa | 0 mm | 1.79 m/s, 14° | 73 W/m² | - |
| 1778002190 | 9.44° C | 84% | 1010.2 hPa | 0 mm | 1.79 m/s, 77° | 80 W/m² | - |
| 1778001883 | 9.44° C | 85% | 1010.5 hPa | 0 mm | 1.34 m/s, 55° | 69 W/m² | - |
| 1778001268 | 9.44° C | 84% | 1010.7 hPa | 0 mm | 1.34 m/s, 167° | 60 W/m² | - |
| 1778000960 | 9.44° C | 82% | 1010.4 hPa | 0.25 mm | 1.79 m/s, 344° | 59 W/m² | - |
| 1778000653 | 9.44° C | 87% | 1010.3 hPa | 0.51 mm | 1.34 m/s, 0° | 60 W/m² | - |
| 1778000346 | 9.44° C | 86% | 1010.2 hPa | 0.76 mm | 0.89 m/s, 11° | 62 W/m² | - |
| 1777999731 | 8.89° C | 88% | 1010.4 hPa | 1.27 mm | 0 m/s | 71 W/m² | - |
| 1777999423 | 8.89° C | 85% | 1010.1 hPa | 1.78 mm | 1.34 m/s, 14° | 60 W/m² | - |
| 1777999116 | 8.89° C | 86% | 1010.3 hPa | 1.78 mm | 1.34 m/s, 46° | 38 W/m² | - |
| 1777998808 | 8.89° C | 86% | 1010.3 hPa | 1.78 mm | 0.89 m/s, 9° | 71 W/m² | - |
| 1777998501 | 8.89° C | 85% | 1010.5 hPa | 1.78 mm | 1.79 m/s, 323° | 74 W/m² | - |
| 1777998194 | 8.89° C | 85% | 1010.7 hPa | 1.78 mm | 0.89 m/s, 322° | 84 W/m² | - |
| 1777997887 | 8.89° C | 86% | 1010.6 hPa | 1.78 mm | 0.89 m/s, 213° | 100 W/m² | - |
| 1777997579 | 8.89° C | 86% | 1010.8 hPa | 1.78 mm | 1.79 m/s, 332° | 153 W/m² | - |
| 1777997271 | 8.33° C | 89% | 1010.5 hPa | 1.52 mm | 0.89 m/s, 51° | 119 W/m² | - |
| 1777996963 | 8.33° C | 89% | 1010.5 hPa | 1.27 mm | 0.89 m/s, 308° | 39 W/m² | - |
| 1777996656 | 8.33° C | 88% | 1010.2 hPa | 1.02 mm | 1.79 m/s, 293° | 24 W/m² | - |
* Rain latest hour (hover to see other rain measurements)
** Current wind speed in m/s (hover to see current wind gust speed)